Time;durP1;ratioP1;P1;durP2;ratioP2;P2;SDS_P1;SDS_P2;PMS_P1;PMS_P2;Temp;Humidity;BMP_temperature;BMP_pressure;BME280_temperature;BME280_humidity;BME280_pressure;Samples;Min_cycle;Max_cycle;Signal;HPM_P1;HPM_P2
2022/02/13 00:00:29;;;;;;;17.35;12.88;;;2.90;99.90;;;;;;5093462;28;20214;-46
2022/02/13 00:02:55;;;;;;;15.65;11.57;;;2.80;99.90;;;;;;5095292;28;20199;-45
2022/02/13 00:05:22;;;;;;;16.50;11.10;;;2.90;99.90;;;;;;5095521;28;20230;-45
2022/02/13 00:07:49;;;;;;;16.60;12.95;;;2.90;99.90;;;;;;5095817;28;20187;-44
2022/02/13 00:10:16;;;;;;;17.45;11.85;;;2.90;99.90;;;;;;5094351;28;20219;-45
2022/02/13 00:12:44;;;;;;;14.15;11.35;;;3.00;99.90;;;;;;5091810;28;20202;-45
2022/02/13 00:15:10;;;;;;;16.25;11.77;;;3.00;99.90;;;;;;5092115;28;20199;-44
2022/02/13 00:17:37;;;;;;;19.25;11.48;;;3.00;99.90;;;;;;5091782;28;20194;-45
2022/02/13 00:20:08;;;;;;;19.27;12.18;;;3.00;99.90;;;;;;5093036;28;20272;-45
2022/02/13 00:22:34;;;;;;;14.27;11.77;;;3.00;99.90;;;;;;5095716;28;20195;-44
2022/02/13 00:25:01;;;;;;;23.00;12.88;;;2.90;99.90;;;;;;5095803;28;20219;-44
2022/02/13 00:27:28;;;;;;;16.58;11.63;;;3.00;99.90;;;;;;5095397;28;20209;-45
2022/02/13 00:29:56;;;;;;;17.65;12.15;;;3.10;99.90;;;;;;5094818;28;20222;-45
2022/02/13 00:32:26;;;;;;;18.35;11.95;;;3.10;99.90;;;;;;5095805;28;20607;-45
2022/02/13 00:34:53;;;;;;;16.85;13.93;;;3.10;99.90;;;;;;5095769;28;20700;-45
2022/02/13 00:37:19;;;;;;;15.48;12.50;;;3.10;99.90;;;;;;5095165;28;20198;-44
2022/02/13 00:39:46;;;;;;;16.25;11.85;;;3.10;99.90;;;;;;5094562;28;20211;-44
2022/02/13 00:42:13;;;;;;;18.33;12.77;;;3.10;99.90;;;;;;5095404;28;20294;-45
2022/02/13 00:44:39;;;;;;;14.18;10.90;;;3.10;99.90;;;;;;5094963;28;20679;-44
2022/02/13 00:47:08;;;;;;;18.88;11.32;;;3.00;99.90;;;;;;5076637;28;20210;-44
2022/02/13 00:49:35;;;;;;;16.92;12.18;;;3.10;99.90;;;;;;5094487;28;20222;-45
2022/02/13 00:52:02;;;;;;;17.45;11.85;;;3.10;99.90;;;;;;5094782;28;20199;-45
2022/02/13 00:54:28;;;;;;;18.48;11.57;;;3.10;99.90;;;;;;5095029;28;20205;-46
2022/02/13 00:56:55;;;;;;;17.85;12.55;;;3.10;99.90;;;;;;5095036;28;20681;-45
2022/02/13 00:59:21;;;;;;;15.18;11.52;;;3.00;99.90;;;;;;5094652;28;20673;-46
2022/02/13 01:01:48;;;;;;;17.10;11.73;;;3.10;99.90;;;;;;5095905;28;20198;-45
2022/02/13 01:04:16;;;;;;;18.95;11.68;;;3.10;99.90;;;;;;5096416;28;20236;-46
2022/02/13 01:06:43;;;;;;;13.55;11.20;;;3.10;99.90;;;;;;5096046;28;20202;-45
2022/02/13 01:09:09;;;;;;;13.45;10.82;;;3.10;99.90;;;;;;5097506;28;20218;-46
2022/02/13 01:11:36;;;;;;;15.70;12.68;;;3.00;99.90;;;;;;5098779;28;20203;-46
2022/02/13 01:14:03;;;;;;;15.43;11.25;;;3.10;99.90;;;;;;5098376;28;20194;-45
2022/02/13 01:16:30;;;;;;;13.60;10.70;;;3.10;99.90;;;;;;5098356;28;20198;-45
2022/02/13 01:18:57;;;;;;;16.20;12.00;;;3.10;99.90;;;;;;5095274;28;20229;-45
2022/02/13 01:21:25;;;;;;;18.80;10.27;;;3.10;99.90;;;;;;5094534;28;20187;-46
2022/02/13 01:23:52;;;;;;;15.02;11.20;;;3.10;99.90;;;;;;5094954;28;20277;-46
2022/02/13 01:26:20;;;;;;;17.05;11.25;;;3.10;99.90;;;;;;5094753;28;20199;-45
2022/02/13 01:28:47;;;;;;;13.57;10.20;;;3.10;99.90;;;;;;5093906;28;20194;-43
2022/02/13 01:31:14;;;;;;;16.75;12.05;;;3.10;99.90;;;;;;5094099;28;20226;-47
2022/02/13 01:33:40;;;;;;;16.42;11.40;;;3.10;99.90;;;;;;5076312;28;20206;-45
2022/02/13 01:36:08;;;;;;;14.90;9.40;;;3.10;99.90;;;;;;5094328;28;20222;-45
2022/02/13 01:38:36;;;;;;;11.95;9.43;;;3.10;99.90;;;;;;5093673;28;20416;-45
2022/02/13 01:41:04;;;;;;;15.57;10.18;;;3.10;99.90;;;;;;5093725;28;20195;-45
2022/02/13 01:43:31;;;;;;;12.27;9.80;;;3.10;99.90;;;;;;5094356;28;20252;-45
2022/02/13 01:45:57;;;;;;;16.08;9.52;;;2.90;99.90;;;;;;5093739;28;20500;-45
2022/02/13 01:48:24;;;;;;;13.18;9.10;;;3.00;99.90;;;;;;5093637;28;20199;-44
2022/02/13 01:50:52;;;;;;;17.33;10.13;;;3.00;99.90;;;;;;5093791;28;20230;-45
2022/02/13 01:53:19;;;;;;;11.35;9.40;;;3.00;99.90;;;;;;5094030;28;20294;-45
2022/02/13 01:55:49;;;;;;;12.73;10.20;;;3.00;99.90;;;;;;5093437;28;20195;-47
2022/02/13 01:58:17;;;;;;;11.02;8.77;;;3.00;99.90;;;;;;5093766;28;20203;-44
2022/02/13 02:00:44;;;;;;;13.73;10.32;;;3.00;99.90;;;;;;5093156;28;20218;-45
2022/02/13 02:03:10;;;;;;;15.43;10.20;;;3.00;99.90;;;;;;5093408;28;20217;-45
2022/02/13 02:05:37;;;;;;;11.63;10.43;;;2.90;99.90;;;;;;5093823;28;20226;-45
2022/02/13 02:08:04;;;;;;;13.05;9.52;;;2.90;99.90;;;;;;5093643;28;20198;-45
2022/02/13 02:10:31;;;;;;;14.52;10.23;;;2.90;99.90;;;;;;5093037;28;20218;-44
2022/02/13 02:13:00;;;;;;;17.60;10.95;;;2.90;99.90;;;;;;5094147;28;20624;-46
2022/02/13 02:15:27;;;;;;;14.02;10.43;;;2.90;99.90;;;;;;5094052;28;20231;-45
2022/02/13 02:17:54;;;;;;;12.65;10.40;;;2.80;99.90;;;;;;5093864;28;20198;-44
2022/02/13 02:20:20;;;;;;;15.25;9.75;;;2.90;99.90;;;;;;5093842;28;20658;-46
2022/02/13 02:22:48;;;;;;;11.20;9.65;;;2.80;99.90;;;;;;5094605;28;20206;-46
2022/02/13 02:25:17;;;;;;;15.85;9.98;;;2.80;99.90;;;;;;5094391;28;20710;-44
2022/02/13 02:27:43;;;;;;;13.65;9.02;;;2.80;99.90;;;;;;5096110;28;20222;-44
2022/02/13 02:30:11;;;;;;;11.98;9.63;;;2.80;99.90;;;;;;5098402;28;20599;-44
2022/02/13 02:32:38;;;;;;;16.40;10.35;;;2.80;99.90;;;;;;5098314;28;20667;-45
2022/02/13 02:35:06;;;;;;;12.82;9.80;;;2.80;99.90;;;;;;5099822;28;20191;-43
2022/02/13 02:37:32;;;;;;;15.73;10.45;;;2.80;99.90;;;;;;5099443;28;20682;-44
2022/02/13 02:39:59;;;;;;;13.30;10.23;;;2.70;99.90;;;;;;5099406;28;20256;-45
2022/02/13 02:42:27;;;;;;;12.27;10.00;;;2.70;99.90;;;;;;5098778;28;20195;-44
2022/02/13 02:44:54;;;;;;;12.90;9.80;;;2.60;99.90;;;;;;5101879;28;20264;-44
2022/02/13 02:47:20;;;;;;;13.32;10.20;;;2.70;99.90;;;;;;5096741;28;20624;-45
2022/02/13 02:49:47;;;;;;;13.93;10.55;;;2.70;99.90;;;;;;5094959;28;20313;-45
2022/02/13 02:52:13;;;;;;;12.88;10.18;;;2.70;99.90;;;;;;5094912;28;20191;-45
2022/02/13 02:54:40;;;;;;;14.32;11.00;;;2.70;99.90;;;;;;5095204;28;20190;-45
2022/02/13 02:57:07;;;;;;;13.95;10.27;;;2.70;99.90;;;;;;5094963;28;20206;-44
2022/02/13 02:59:35;;;;;;;12.10;10.02;;;2.40;99.90;;;;;;5095096;28;20222;-46
2022/02/13 03:02:01;;;;;;;14.02;10.80;;;2.60;99.90;;;;;;5096850;28;20495;-43
2022/02/13 03:04:28;;;;;;;16.92;10.68;;;2.60;99.90;;;;;;5100139;28;20198;-43
2022/02/13 03:06:55;;;;;;;14.50;10.40;;;2.70;99.90;;;;;;5099704;28;20195;-44
2022/02/13 03:09:21;;;;;;;19.67;12.45;;;2.60;99.90;;;;;;5096023;28;20221;-44
2022/02/13 03:11:48;;;;;;;11.80;9.45;;;2.60;99.90;;;;;;5096205;28;20199;-45
2022/02/13 03:14:15;;;;;;;14.93;11.10;;;2.60;99.90;;;;;;5096171;28;20201;-45
2022/02/13 03:16:43;;;;;;;13.55;10.60;;;2.60;99.90;;;;;;5094384;28;20198;-43
2022/02/13 03:19:10;;;;;;;13.85;10.23;;;2.60;99.90;;;;;;5096902;28;20600;-44
2022/02/13 03:21:36;;;;;;;15.35;9.93;;;2.60;99.90;;;;;;5095792;28;20556;-45
2022/02/13 03:24:07;;;;;;;12.20;10.07;;;2.60;99.90;;;;;;5095446;28;20614;-45
2022/02/13 03:26:33;;;;;;;13.60;9.93;;;2.60;99.90;;;;;;5096534;28;20245;-44
2022/02/13 03:29:00;;;;;;;15.93;11.80;;;2.60;99.90;;;;;;5095001;28;20594;-45
2022/02/13 03:31:27;;;;;;;12.18;10.70;;;2.60;99.90;;;;;;5094495;28;20199;-44
2022/02/13 03:33:55;;;;;;;14.63;10.65;;;2.60;99.90;;;;;;5092525;28;20205;-44
2022/02/13 03:36:22;;;;;;;14.95;10.82;;;2.60;99.90;;;;;;5092401;28;20198;-43
2022/02/13 03:38:49;;;;;;;13.98;10.88;;;2.60;99.90;;;;;;5091867;28;20675;-44
2022/02/13 03:41:15;;;;;;;14.25;11.07;;;2.60;99.90;;;;;;5092250;28;20187;-44
2022/02/13 03:43:42;;;;;;;17.30;10.50;;;2.60;99.90;;;;;;5092074;28;20190;-44
2022/02/13 03:46:09;;;;;;;12.88;9.70;;;2.70;99.90;;;;;;5092044;28;20303;-46
2022/02/13 03:48:35;;;;;;;12.52;10.40;;;2.60;99.90;;;;;;5091998;28;20640;-45
2022/02/13 03:51:03;;;;;;;16.48;11.30;;;2.60;99.90;;;;;;5091815;28;20202;-45
2022/02/13 03:53:30;;;;;;;14.35;10.30;;;2.60;99.90;;;;;;5091782;28;20198;-44
2022/02/13 03:55:56;;;;;;;16.02;11.00;;;2.60;99.90;;;;;;5095835;28;20197;-44
2022/02/13 03:58:23;;;;;;;15.95;10.68;;;2.60;99.90;;;;;;5095807;28;20198;-46
2022/02/13 04:00:50;;;;;;;17.35;10.48;;;2.60;99.90;;;;;;5095959;28;20234;-44
2022/02/13 04:03:16;;;;;;;13.25;10.32;;;2.60;99.90;;;;;;5096207;28;20221;-44
2022/02/13 04:05:43;;;;;;;13.25;10.00;;;2.60;99.90;;;;;;5096016;28;20749;-44
2022/02/13 04:08:11;;;;;;;14.85;11.15;;;2.60;99.90;;;;;;5096047;28;20260;-44
2022/02/13 04:10:37;;;;;;;17.65;9.40;;;2.60;99.90;;;;;;5095044;28;20800;-45
2022/02/13 04:13:04;;;;;;;14.77;10.70;;;2.60;99.90;;;;;;5077430;28;20685;-44
2022/02/13 04:15:31;;;;;;;15.73;10.18;;;2.60;99.90;;;;;;5096410;28;20195;-44
2022/02/13 04:17:57;;;;;;;14.73;10.88;;;2.50;99.90;;;;;;5095764;28;20195;-44
2022/02/13 04:20:25;;;;;;;15.02;11.00;;;2.50;99.90;;;;;;5095092;28;20579;-45
2022/02/13 04:22:51;;;;;;;14.45;11.07;;;2.50;99.90;;;;;;5095405;28;20202;-44
2022/02/13 04:25:19;;;;;;;15.40;11.38;;;2.50;99.90;;;;;;5095286;28;20222;-45
2022/02/13 04:27:47;;;;;;;14.68;10.55;;;2.40;99.90;;;;;;5095307;28;20660;-46
2022/02/13 04:30:14;;;;;;;16.08;11.85;;;2.40;99.90;;;;;;5094722;28;20226;-46
2022/02/13 04:32:40;;;;;;;11.60;9.85;;;2.40;99.90;;;;;;5095450;28;20191;-44
2022/02/13 04:35:08;;;;;;;13.40;10.43;;;2.40;99.90;;;;;;5095076;28;20195;-44
2022/02/13 04:37:34;;;;;;;14.40;11.32;;;2.40;99.90;;;;;;5094986;28;20199;-44
2022/02/13 04:40:01;;;;;;;15.35;11.38;;;2.30;99.90;;;;;;5094935;28;20221;-44
2022/02/13 04:42:29;;;;;;;13.63;10.60;;;2.40;99.90;;;;;;5094946;28;20209;-44
2022/02/13 04:44:55;;;;;;;12.45;10.40;;;2.30;99.90;;;;;;5094899;28;20618;-44
2022/02/13 04:47:22;;;;;;;14.80;9.68;;;2.40;99.90;;;;;;5094848;28;20198;-43
2022/02/13 04:49:48;;;;;;;13.25;10.50;;;2.30;99.90;;;;;;5094334;28;20215;-44
2022/02/13 04:52:16;;;;;;;13.40;9.93;;;2.30;99.90;;;;;;5094714;28;20203;-44
2022/02/13 04:54:43;;;;;;;19.75;11.70;;;2.20;99.90;;;;;;5094848;28;20198;-44
2022/02/13 04:57:10;;;;;;;15.95;11.63;;;2.30;99.90;;;;;;5094727;28;20194;-43
2022/02/13 04:59:38;;;;;;;15.20;10.82;;;2.30;99.90;;;;;;5094199;28;20218;-44
2022/02/13 05:02:05;;;;;;;14.07;11.35;;;2.30;99.90;;;;;;5094723;28;20285;-43
2022/02/13 05:04:32;;;;;;;14.07;10.80;;;2.30;99.90;;;;;;5094871;28;20532;-44
2022/02/13 05:06:59;;;;;;;13.43;10.43;;;2.10;99.90;;;;;;5094086;28;20222;-47
2022/02/13 05:09:25;;;;;;;15.52;11.05;;;2.20;99.90;;;;;;5094162;28;20328;-44
2022/02/13 05:11:52;;;;;;;16.83;10.82;;;2.10;99.90;;;;;;5094508;28;20270;-43
2022/02/13 05:14:18;;;;;;;16.10;10.68;;;2.00;99.90;;;;;;5094611;28;20244;-44
2022/02/13 05:16:46;;;;;;;13.32;10.82;;;2.10;99.90;;;;;;5094435;28;20199;-45
2022/02/13 05:19:13;;;;;;;15.52;11.63;;;2.20;99.90;;;;;;5093955;28;20267;-45
2022/02/13 05:21:40;;;;;;;13.85;9.57;;;2.30;99.90;;;;;;5094764;28;20201;-44
2022/02/13 05:24:07;;;;;;;13.70;10.45;;;2.20;99.90;;;;;;5094437;28;20203;-45
2022/02/13 05:26:33;;;;;;;15.00;10.48;;;2.20;99.90;;;;;;5094535;28;20211;-45
2022/02/13 05:29:00;;;;;;;15.82;11.88;;;2.20;99.90;;;;;;5094395;28;20280;-46
2022/02/13 05:31:30;;;;;;;14.65;11.80;;;2.20;99.90;;;;;;5093961;28;20663;-47
2022/02/13 05:33:58;;;;;;;19.88;12.55;;;2.20;99.90;;;;;;5093599;28;20207;-48
2022/02/13 05:36:25;;;;;;;18.15;13.55;;;2.20;99.90;;;;;;5093885;28;20198;-46
2022/02/13 05:38:51;;;;;;;14.30;11.48;;;2.20;99.90;;;;;;5093479;28;20191;-47
2022/02/13 05:41:18;;;;;;;16.70;12.85;;;2.10;99.90;;;;;;5093705;28;20203;-46
2022/02/13 05:43:45;;;;;;;15.05;12.05;;;2.10;99.90;;;;;;5093547;28;20194;-46
2022/02/13 05:46:11;;;;;;;17.33;13.00;;;2.00;99.90;;;;;;5093359;28;20218;-46
2022/02/13 05:48:40;;;;;;;15.35;11.20;;;2.00;99.90;;;;;;5074885;28;20195;-47
2022/02/13 05:51:08;;;;;;;17.40;12.25;;;1.90;99.90;;;;;;5093504;28;20202;-45
2022/02/13 05:53:34;;;;;;;21.17;13.57;;;2.30;99.90;;;;;;5075367;28;20226;-46
2022/02/13 05:56:01;;;;;;;14.48;10.90;;;2.10;99.90;;;;;;5093476;28;20655;-46
2022/02/13 05:58:28;;;;;;;17.00;12.50;;;1.90;99.90;;;;;;5093375;28;20561;-47
2022/02/13 06:00:54;;;;;;;16.02;11.35;;;2.10;99.90;;;;;;5092993;28;20560;-46
2022/02/13 06:03:21;;;;;;;15.38;11.25;;;2.10;99.90;;;;;;5093273;28;20199;-46
2022/02/13 06:05:47;;;;;;;14.75;10.48;;;2.10;99.90;;;;;;5074991;28;20660;-47
2022/02/13 06:08:15;;;;;;;13.52;10.90;;;2.10;99.90;;;;;;5093167;28;20599;-47
2022/02/13 06:10:42;;;;;;;18.58;11.57;;;2.10;99.90;;;;;;5092614;28;20600;-46
2022/02/13 06:13:08;;;;;;;17.75;11.40;;;2.00;99.90;;;;;;5092995;28;20691;-46
2022/02/13 06:15:35;;;;;;;16.92;12.30;;;1.90;99.90;;;;;;5093505;28;20585;-46
2022/02/13 06:18:01;;;;;;;13.20;10.63;;;2.00;99.90;;;;;;5092116;28;20206;-46
2022/02/13 06:20:28;;;;;;;16.80;11.75;;;2.00;99.90;;;;;;5092861;28;20218;-47
2022/02/13 06:22:55;;;;;;;15.70;11.73;;;2.00;99.90;;;;;;5093611;28;20277;-46
2022/02/13 06:25:22;;;;;;;13.13;10.30;;;2.00;99.90;;;;;;5093323;28;20248;-46
2022/02/13 06:27:49;;;;;;;13.05;10.10;;;2.00;99.90;;;;;;5093244;28;20218;-46
2022/02/13 06:30:16;;;;;;;12.18;10.90;;;2.00;99.90;;;;;;5092086;28;20230;-47
2022/02/13 06:32:42;;;;;;;15.43;11.25;;;1.70;99.90;;;;;;5092639;28;20190;-46
2022/02/13 06:35:09;;;;;;;12.75;9.95;;;2.00;99.90;;;;;;5092616;28;20203;-46
2022/02/13 06:37:38;;;;;;;16.05;11.88;;;2.00;99.90;;;;;;5092671;28;20202;-47
2022/02/13 06:40:06;;;;;;;15.50;11.25;;;2.00;99.90;;;;;;5092132;28;20218;-47
2022/02/13 06:42:33;;;;;;;14.07;10.30;;;2.00;99.90;;;;;;5092567;28;20217;-47
2022/02/13 06:45:00;;;;;;;15.07;10.95;;;2.00;99.90;;;;;;5092384;28;20284;-47
2022/02/13 06:47:27;;;;;;;16.90;10.93;;;2.00;99.90;;;;;;5092403;28;20222;-47
2022/02/13 06:49:53;;;;;;;14.40;11.02;;;2.00;99.90;;;;;;5092074;28;20213;-46
2022/02/13 06:52:20;;;;;;;13.40;10.35;;;2.10;99.90;;;;;;5092389;28;20201;-47
2022/02/13 06:54:47;;;;;;;13.68;10.32;;;2.00;99.90;;;;;;5092157;28;20205;-47
2022/02/13 06:57:13;;;;;;;13.38;9.50;;;2.10;99.90;;;;;;5092453;28;20201;-47
2022/02/13 06:59:41;;;;;;;13.18;10.80;;;2.10;99.90;;;;;;5091835;28;20237;-47
2022/02/13 07:02:10;;;;;;;13.20;10.13;;;2.10;99.90;;;;;;5092040;28;20226;-47
2022/02/13 07:04:36;;;;;;;16.20;11.00;;;2.10;99.90;;;;;;5092151;28;20250;-47
2022/02/13 07:07:04;;;;;;;19.35;11.25;;;2.20;99.90;;;;;;5092046;28;20585;-47
2022/02/13 07:09:30;;;;;;;12.68;10.18;;;2.20;99.90;;;;;;5091407;28;20267;-46
2022/02/13 07:11:58;;;;;;;14.48;10.50;;;2.20;99.90;;;;;;5091959;28;20201;-47
2022/02/13 07:14:25;;;;;;;12.60;9.93;;;2.20;99.90;;;;;;5092446;28;20663;-46
2022/02/13 07:16:53;;;;;;;15.98;10.35;;;2.10;99.90;;;;;;5092431;28;20203;-46
2022/02/13 07:19:19;;;;;;;14.60;10.30;;;2.20;99.90;;;;;;5091576;28;20218;-47
2022/02/13 07:21:46;;;;;;;13.85;9.18;;;2.30;99.90;;;;;;5092059;28;20720;-46
2022/02/13 07:24:14;;;;;;;14.65;9.27;;;2.30;99.90;;;;;;5092568;28;20195;-46
2022/02/13 07:26:41;;;;;;;14.43;10.95;;;2.20;99.90;;;;;;5092678;28;20238;-46
2022/02/13 07:29:09;;;;;;;14.15;10.30;;;2.30;99.90;;;;;;5091814;28;20221;-46
2022/02/13 07:31:37;;;;;;;12.25;9.43;;;2.40;99.90;;;;;;5091954;28;20206;-46
2022/02/13 07:34:05;;;;;;;13.35;10.60;;;2.10;99.90;;;;;;5091920;28;20301;-46
2022/02/13 07:36:33;;;;;;;12.00;9.70;;;2.40;99.90;;;;;;5091744;28;20603;-46
2022/02/13 07:39:00;;;;;;;14.82;9.88;;;2.40;99.90;;;;;;5091148;28;20211;-46
2022/02/13 07:41:27;;;;;;;11.60;9.65;;;2.40;99.90;;;;;;5091744;28;20191;-46
2022/02/13 07:43:55;;;;;;;14.63;10.55;;;2.30;99.90;;;;;;5091615;28;20612;-47
2022/02/13 07:46:23;;;;;;;10.98;9.07;;;2.50;99.90;;;;;;5091834;28;20206;-47
2022/02/13 07:48:50;;;;;;;13.63;10.13;;;2.50;99.90;;;;;;5091354;28;20569;-46
2022/02/13 07:51:18;;;;;;;13.05;9.80;;;2.50;99.90;;;;;;5091976;28;20194;-46
2022/02/13 07:53:45;;;;;;;16.08;11.18;;;2.60;99.90;;;;;;5091768;28;20663;-46
2022/02/13 07:56:12;;;;;;;16.52;9.48;;;2.60;99.90;;;;;;5091915;28;20202;-45
2022/02/13 07:58:39;;;;;;;17.05;10.40;;;2.60;99.90;;;;;;5091045;28;20195;-46
2022/02/13 08:01:07;;;;;;;11.57;9.40;;;2.60;99.90;;;;;;5091320;28;20572;-46
2022/02/13 08:03:36;;;;;;;11.73;9.23;;;2.70;99.90;;;;;;5091371;28;20199;-46
2022/02/13 08:06:03;;;;;;;16.23;10.15;;;2.70;99.90;;;;;;5091216;28;20324;-46
2022/02/13 08:08:31;;;;;;;16.27;10.80;;;2.70;99.90;;;;;;5090978;28;20198;-46
2022/02/13 08:10:57;;;;;;;14.13;9.90;;;2.70;99.90;;;;;;5091195;28;20230;-46
2022/02/13 08:13:24;;;;;;;11.60;9.65;;;2.70;99.90;;;;;;5091512;28;20198;-46
2022/02/13 08:15:51;;;;;;;13.98;9.43;;;2.80;99.90;;;;;;5091956;28;20217;-46
2022/02/13 08:18:18;;;;;;;12.68;8.88;;;2.80;99.90;;;;;;5091881;28;20739;-46
2022/02/13 08:20:46;;;;;;;13.88;8.82;;;2.90;99.90;;;;;;5091466;28;20787;-46
2022/02/13 08:23:13;;;;;;;15.30;10.30;;;3.00;99.90;;;;;;5091622;28;20210;-48
2022/02/13 08:25:42;;;;;;;13.55;9.20;;;2.90;99.90;;;;;;5091305;28;20206;-47
2022/02/13 08:28:11;;;;;;;11.70;9.00;;;3.00;99.90;;;;;;5091321;28;20229;-47
2022/02/13 08:30:38;;;;;;;13.60;10.50;;;2.90;99.90;;;;;;5091111;28;20227;-46
2022/02/13 08:33:04;;;;;;;14.07;9.50;;;3.00;99.90;;;;;;5091597;28;20198;-46
2022/02/13 08:35:31;;;;;;;13.27;9.45;;;3.10;99.90;;;;;;5091905;28;20207;-46
2022/02/13 08:37:59;;;;;;;14.48;9.60;;;3.10;99.90;;;;;;5091757;28;20712;-46
2022/02/13 08:40:25;;;;;;;13.27;8.98;;;3.20;99.90;;;;;;5090724;28;20222;-48
2022/02/13 08:42:53;;;;;;;13.38;9.38;;;3.20;99.90;;;;;;5094598;28;20209;-46
2022/02/13 08:45:20;;;;;;;12.40;9.10;;;3.20;99.90;;;;;;5094770;28;20199;-46
2022/02/13 08:47:47;;;;;;;12.07;8.98;;;3.20;99.90;;;;;;5094984;28;20222;-46
2022/02/13 08:50:13;;;;;;;10.77;7.88;;;3.30;99.90;;;;;;5094787;28;20218;-47
2022/02/13 08:52:40;;;;;;;13.25;9.35;;;3.30;99.90;;;;;;5094861;28;20583;-48
2022/02/13 08:55:07;;;;;;;16.80;8.38;;;3.30;99.90;;;;;;5094389;28;20190;-46
2022/02/13 08:57:34;;;;;;;11.52;7.55;;;3.40;99.90;;;;;;5094535;28;20198;-47
2022/02/13 09:00:02;;;;;;;12.98;8.68;;;3.40;99.90;;;;;;5094042;28;20222;-47
2022/02/13 09:02:29;;;;;;;11.18;8.40;;;3.40;99.90;;;;;;5094595;28;20191;-48
2022/02/13 09:04:57;;;;;;;11.00;7.65;;;3.50;99.90;;;;;;5095049;28;20210;-46
2022/02/13 09:07:23;;;;;;;11.65;8.73;;;3.50;99.90;;;;;;5093935;28;20210;-46
2022/02/13 09:09:50;;;;;;;12.00;8.93;;;3.60;99.90;;;;;;5093999;28;20356;-46
2022/02/13 09:12:19;;;;;;;12.15;7.75;;;3.60;99.90;;;;;;5094107;28;20263;-46
2022/02/13 09:14:45;;;;;;;12.02;8.32;;;3.70;99.90;;;;;;5094170;28;20256;-45
2022/02/13 09:17:13;;;;;;;9.43;7.85;;;3.70;99.90;;;;;;5093869;28;20198;-46
2022/02/13 09:19:40;;;;;;;11.18;7.28;;;3.70;99.90;;;;;;5093828;28;20218;-46
2022/02/13 09:22:07;;;;;;;9.55;7.82;;;3.80;99.90;;;;;;5094061;28;20195;-46
2022/02/13 09:24:35;;;;;;;9.63;7.38;;;3.80;99.90;;;;;;5093693;28;20199;-46
2022/02/13 09:27:01;;;;;;;11.00;7.55;;;3.80;99.90;;;;;;5093750;28;20218;-46
2022/02/13 09:29:28;;;;;;;12.75;7.95;;;3.90;99.90;;;;;;5093180;28;20706;-46
2022/02/13 09:31:55;;;;;;;10.65;8.10;;;3.90;99.90;;;;;;5075217;28;20203;-47
2022/02/13 09:34:25;;;;;;;13.75;7.93;;;3.90;99.90;;;;;;5093686;28;20252;-46
2022/02/13 09:36:52;;;;;;;11.00;8.23;;;4.00;99.90;;;;;;5093428;28;20201;-47
2022/02/13 09:39:19;;;;;;;10.55;7.70;;;4.00;99.90;;;;;;5093106;28;20211;-46
2022/02/13 09:41:45;;;;;;;13.65;8.60;;;4.10;99.90;;;;;;5093684;28;20575;-47
2022/02/13 09:44:12;;;;;;;12.45;7.70;;;4.10;99.90;;;;;;5094116;28;20205;-46
2022/02/13 09:46:39;;;;;;;15.55;7.95;;;4.10;99.90;;;;;;5093577;28;20195;-46
2022/02/13 09:49:06;;;;;;;9.73;7.60;;;4.20;99.90;;;;;;5074580;28;20621;-47
2022/02/13 09:51:35;;;;;;;11.02;7.82;;;4.20;99.90;;;;;;5092795;28;20698;-47
2022/02/13 09:54:02;;;;;;;12.98;7.55;;;4.30;99.90;;;;;;5093043;28;20198;-47
2022/02/13 09:56:28;;;;;;;10.40;7.82;;;4.40;99.90;;;;;;5093145;28;20277;-46
2022/02/13 09:58:55;;;;;;;8.10;7.30;;;4.30;99.90;;;;;;5092513;28;20691;-46
2022/02/13 10:01:34;;;;;;;10.40;7.20;;;4.50;99.90;;;;;;5093157;28;20198;-47
2022/02/13 10:04:01;;;;;;;10.85;7.35;;;4.50;99.90;;;;;;5093392;28;20637;-47
2022/02/13 10:06:28;;;;;;;10.00;7.97;;;4.50;99.90;;;;;;5092830;28;20336;-47
2022/02/13 10:08:57;;;;;;;8.82;7.43;;;4.60;99.90;;;;;;5092447;28;20702;-46
2022/02/13 10:11:26;;;;;;;11.30;8.50;;;4.60;99.90;;;;;;5092731;28;20290;-47
2022/02/13 10:13:54;;;;;;;12.63;7.50;;;4.70;99.90;;;;;;5093135;28;20241;-46
2022/02/13 10:16:24;;;;;;;9.70;6.82;;;4.70;99.90;;;;;;5092877;28;20572;-47
2022/02/13 10:18:56;;;;;;;8.75;7.07;;;4.80;99.90;;;;;;5092314;28;20203;-47
2022/02/13 10:21:30;;;;;;;9.82;7.13;;;4.80;99.90;;;;;;5092856;28;20186;-47
2022/02/13 10:27:03;;;;;;;9.30;7.28;;;4.90;99.90;;;;;;5109901;27;20566;-48
2022/02/13 10:29:31;;;;;;;8.88;6.10;;;5.00;99.90;;;;;;5109450;28;20254;-47
2022/02/13 10:32:15;;;;;;;8.83;6.37;;;5.00;99.90;;;;;;5110959;28;20197;-48
2022/02/13 10:34:57;;;;;;;8.63;6.70;;;5.10;99.90;;;;;;5110576;28;20879;-45
2022/02/13 10:37:47;;;;;;;8.50;6.55;;;5.10;99.90;;;;;;5127972;22;20194;-49
2022/02/13 10:40:15;;;;;;;13.63;9.00;;;5.20;99.90;;;;;;5087909;28;20269;-49
2022/02/13 10:42:44;;;;;;;14.50;8.77;;;5.20;99.90;;;;;;5088400;28;20229;-50
2022/02/13 10:45:22;;;;;;;10.98;6.88;;;5.20;99.90;;;;;;5088480;28;20717;-49
2022/02/13 10:47:51;;;;;;;11.88;8.60;;;5.30;99.90;;;;;;5088003;28;20240;-50
2022/02/13 10:50:19;;;;;;;19.08;12.48;;;5.30;99.90;;;;;;5087846;28;20249;-50
2022/02/13 10:52:47;;;;;;;15.90;10.63;;;5.30;99.90;;;;;;5088119;28;20202;-49
2022/02/13 10:55:14;;;;;;;10.68;7.47;;;5.40;99.90;;;;;;5087817;28;20223;-50
2022/02/13 10:57:42;;;;;;;10.02;7.25;;;5.40;99.90;;;;;;5087991;28;20765;-50
2022/02/13 11:00:12;;;;;;;8.75;6.13;;;5.40;99.90;;;;;;5087487;28;20233;-51
2022/02/13 11:02:39;;;;;;;10.57;7.17;;;5.50;99.90;;;;;;5087956;28;20535;-50
2022/02/13 11:05:08;;;;;;;9.63;7.03;;;5.50;99.80;;;;;;5088015;28;20476;-50
2022/02/13 11:07:35;;;;;;;7.70;5.93;;;5.60;99.30;;;;;;5087812;28;20425;-50
2022/02/13 11:10:04;;;;;;;7.55;6.22;;;5.70;99.10;;;;;;5087463;28;20466;-50
2022/02/13 11:12:31;;;;;;;7.37;5.90;;;5.70;99.10;;;;;;5087840;28;20200;-50
2022/02/13 11:15:18;;;;;;;10.37;6.80;;;5.80;99.30;;;;;;5087643;28;20916;-50
2022/02/13 11:17:46;;;;;;;7.63;6.83;;;5.80;99.20;;;;;;5087689;28;20844;-50
2022/02/13 11:20:14;;;;;;;8.40;6.60;;;5.80;99.50;;;;;;5087117;28;20409;-50
2022/02/13 11:22:42;;;;;;;9.57;6.90;;;5.80;99.20;;;;;;5087609;28;20530;-50
2022/02/13 11:25:10;;;;;;;9.73;6.60;;;5.90;99.30;;;;;;5087765;28;20546;-50
2022/02/13 11:27:52;;;;;;;8.63;7.00;;;5.90;99.40;;;;;;5087161;28;20429;-50
2022/02/13 11:30:41;;;;;;;7.70;5.93;;;6.00;99.20;;;;;;5087424;28;20465;-50
2022/02/13 11:33:10;;;;;;;11.40;6.77;;;6.00;98.80;;;;;;5087114;28;20429;-50
2022/02/13 11:35:54;;;;;;;8.70;5.77;;;6.00;98.10;;;;;;5087826;28;20406;-50
2022/02/13 11:38:56;;;;;;;7.97;6.20;;;6.10;98.30;;;;;;5072841;28;20452;-50
2022/02/13 11:42:08;;;;;;;8.57;6.07;;;6.10;98.40;;;;;;5072002;28;20421;-50
2022/02/13 11:44:58;;;;;;;11.60;6.90;;;6.10;97.90;;;;;;5073619;28;20443;-50
2022/02/13 11:47:40;;;;;;;14.00;10.10;;;6.20;98.30;;;;;;5073714;28;20433;-51
2022/02/13 11:50:24;;;;;;;10.50;7.70;;;6.20;97.70;;;;;;5073204;28;20466;-50
2022/02/13 11:52:57;;;;;;;9.13;6.13;;;6.30;97.60;;;;;;5073359;28;20429;-50
2022/02/13 11:55:26;;;;;;;8.33;5.47;;;6.30;97.70;;;;;;5073158;28;20435;-50
2022/02/13 11:57:58;;;;;;;6.90;5.93;;;6.40;98.20;;;;;;5073400;28;20454;-50
2022/02/13 12:00:35;;;;;;;6.67;6.00;;;6.40;97.70;;;;;;5073154;28;20467;-50
2022/02/13 12:03:27;;;;;;;9.00;6.43;;;6.40;97.70;;;;;;5073503;28;20413;-50
2022/02/13 12:06:30;;;;;;;6.40;5.40;;;6.50;97.50;;;;;;5073566;28;20544;-51
2022/02/13 12:08:59;;;;;;;7.57;5.77;;;6.50;96.80;;;;;;5072678;28;20438;-50
2022/02/13 12:11:31;;;;;;;7.97;6.60;;;6.50;96.70;;;;;;5073179;28;20426;-49
2022/02/13 12:13:58;;;;;;;11.20;6.23;;;6.50;96.90;;;;;;5073105;28;20433;-50
2022/02/13 12:16:26;;;;;;;8.80;5.97;;;6.60;96.50;;;;;;5073188;28;20413;-50
2022/02/13 12:18:52;;;;;;;6.53;5.83;;;6.60;96.00;;;;;;5072391;28;20960;-50
2022/02/13 12:21:26;;;;;;;6.27;5.50;;;6.60;95.80;;;;;;5073068;28;20426;-50
2022/02/13 12:24:02;;;;;;;6.80;6.10;;;6.70;95.80;;;;;;5073084;28;20466;-50
2022/02/13 12:26:30;;;;;;;9.63;6.50;;;6.80;95.50;;;;;;5072568;28;20534;-50
2022/02/13 12:28:57;;;;;;;6.30;5.23;;;6.80;95.20;;;;;;5072453;28;20426;-50
2022/02/13 12:31:24;;;;;;;6.57;5.40;;;6.80;94.90;;;;;;5072981;28;20953;-50
2022/02/13 12:33:53;;;;;;;9.83;6.20;;;6.80;95.00;;;;;;5072879;28;20939;-49
2022/02/13 12:36:23;;;;;;;8.97;5.63;;;6.80;95.20;;;;;;5073038;28;20439;-50
2022/02/13 12:38:53;;;;;;;7.50;5.53;;;6.80;95.10;;;;;;5072828;28;20464;-50
2022/02/13 12:41:22;;;;;;;7.43;6.00;;;6.90;95.20;;;;;;5072488;28;20446;-50
2022/02/13 12:43:50;;;;;;;9.50;6.77;;;6.90;94.60;;;;;;5071049;28;20448;-50
2022/02/13 12:46:19;;;;;;;6.83;5.73;;;7.00;94.20;;;;;;5072314;28;20522;-50
2022/02/13 12:48:47;;;;;;;7.40;5.63;;;7.00;94.40;;;;;;5071404;28;21048;-49
2022/02/13 12:51:25;;;;;;;6.87;5.60;;;7.10;94.20;;;;;;5072080;28;20506;-51